All Stations Radar Satellite Rainfall Station Map Enhanced Site
Observations: Wind Gusts Humidity Temperature    
Forecasts: Wind Gusts Humidity Temperature    

Mt. Soledad (578) Station Data (Station Map)

Red Flag Warning: No
Fire Weather Zone: 243
SDGE Region: Beach Cities
Lat/Lon: 32.814/-117.241

Observations

Time (PDT)Wind Spd/GustTempRHFuel Moisture
7/29 5:50pmNW 6 G 1075°69%8.71%
7/29 5:40pmWNW 6 G 1275°69%8.65%
7/29 5:30pmWNW 6 G 1275°67%8.62%
7/29 5:20pmNW 7 G 1275°62%8.63%
7/29 5:10pmNW 6 G 1176°61%8.58%
7/29 5:00pmWNW 5 G 1176°65%8.62%
7/29 4:50pmNW 6 G 1376°68%8.56%
7/29 4:40pmWNW 6 G 1077°65%8.53%
7/29 4:30pmWNW 5 G 1178°53%8.49%
7/29 4:20pmWNW 6 G 1178°49%8.47%
7/29 4:10pmNW 6 G 1178°54%8.49%
7/29 4:00pmW 5 G 1079°53%8.49%
7/29 3:50pmW 4 G 1079°52%8.5%
7/29 3:40pmWNW 5 G 1080°49%8.52%
7/29 3:30pmW 5 G 1080°43%8.5%
7/29 3:20pmWNW 6 G 1281°41%8.49%
7/29 3:10pmWNW 5 G 1081°40%8.52%
7/29 3:00pmWNW 6 G 1181°39%8.54%
7/29 2:50pmNW 6 G 983°32%8.63%
7/29 2:40pmNW 6 G 1083°28%8.63%
7/29 2:30pmWNW 6 G 983°24%8.69%
7/29 2:20pmWNW 6 G 982°26%8.84%
7/29 2:10pmWNW 7 G 1181°31%8.9%
7/29 2:00pmWNW 6 G 1081°34%8.94%
7/29 1:50pmNW 6 G 1081°32%9.05%
7/29 1:40pmWNW 6 G 1081°34%9.15%
7/29 1:30pmWNW 6 G 1481°36%9.22%
7/29 1:20pmNW 5 G 1081°42%9.39%
7/29 1:10pmNW 7 G 1279°47%9.36%
7/29 1:00pmWNW 5 G 1280°47%9.32%
7/29 12:50pmNW 4 G 1180°49%9.59%
7/29 12:40pmNW 5 G 1181°47%9.65%
7/29 12:30pmN 5 G 1081°44%9.65%
7/29 12:20pmNNW 5 G 1182°44%9.83%
7/29 12:10pmNNW 6 G 1180°49%10%
7/29 12:00pmNW 5 G 1281°51%10.09%
7/29 11:50amNW 6 G 1180°49%10.17%
7/29 11:40amNW 5 G 980°56%10.34%
7/29 11:30amNW 5 G 879°56%10.42%
7/29 11:20amWNW 4 G 880°57%10.58%
7/29 11:10amNW 3 G 779°57%10.77%
7/29 11:00amWNW 4 G 979°60%10.88%
7/29 10:50amWNW 4 G 879°62%11.02%
7/29 10:40amNW 5 G 878°64%11.12%
7/29 10:30amNNW 5 G 878°62%11.21%
7/29 10:20amNNW 5 G 977°61%11.3%
7/29 10:10amNNW 6 G 1078°60%11.41%
7/29 10:00amNW 5 G 979°58%11.57%
7/29 9:50amN 4 G 879°63%11.86%
7/29 9:40amSSW 3 G 678°67%12.08%
7/29 9:30amSW 2 G 578°69%12.24%
7/29 9:20amSW 2 G 576°73%12.53%
7/29 9:10amSW 3 G 877°72%12.66%
7/29 9:00amS 2 G 576°74%12.88%
7/29 8:50amSSE 3 G 576°75%13.02%
7/29 8:40amS 2 G 775°76%13.24%
7/29 8:30amSSW 1 G 475°75%13.45%
7/29 8:20amWNW 2 G 474°76%13.7%
7/29 8:10amNNW 2 G 474°77%13.96%
7/29 8:00amENE 2 G 574°79%14.21%
7/29 7:50amENE 1 G 374°80%14.53%
7/29 7:40amE 2 G 372°83%14.87%
7/29 7:30amN 3 G 671°87%15.21%
7/29 7:20amNW 3 G 670°89%15.5%
7/29 7:10amNNW 6 G 970°89%15.69%
7/29 7:00amNW 5 G 870°89%15.88%
7/29 6:50amNNW 5 G 769°90%16.13%
7/29 6:40amNW 4 G 769°91%16.3%
7/29 6:30amNNW 4 G 769°92%16.34%
7/29 6:20amNW 4 G 668°92%16.3%
7/29 6:10amNW 3 G 468°91%16.21%
7/29 6:00amWNW 1 G 468°91%16.1%
7/29 5:50amNW 1 G 168°91%15.95%
7/29 5:40amWNW 2 G 368°91%15.88%
7/29 5:30amNW 2 G 468°90%15.76%
7/29 5:20amNNW 2 G 368°89%15.66%
7/29 5:10amWNW 2 G 368°87%15.58%
7/29 5:00amWNW 2 G 268°88%15.52%
7/29 4:50amWSW 1 G 368°90%15.5%
7/29 4:40amNE 1 G 268°89%15.35%
7/29 4:30amSE 1 G 368°87%15.23%
7/29 4:20amSSE 1 G 369°85%15.16%
7/29 4:10amWNW 3 G 569°86%15.13%
7/29 4:00amWNW 1 G 369°87%15.08%
7/29 3:50amNW 1 G 469°87%14.99%
7/29 3:40amSSE 0 G 269°87%14.92%
7/29 3:30amNNW 2 G 469°87%14.85%
7/29 3:20amN 1 G 469°87%14.74%
7/29 3:10amSW 2 G 469°86%14.68%
7/29 3:00amWNW 2 G 369°86%14.63%
7/29 2:50amN 4 G 669°86%14.57%
7/29 2:40amNNW 2 G 569°87%14.45%
7/29 2:30amNW 2 G 369°88%14.37%
7/29 2:20amWNW 1 G 269°88%14.29%
7/29 2:10amN 1 G 369°89%14.18%
7/29 2:00amN 2 G 469°89%14.06%
7/29 1:50amNW 1 G 369°90%13.95%
7/29 1:40amNW 3 G 469°90%13.87%
7/29 1:30amWNW 2 G 370°88%13.76%
7/29 1:20amNW 3 G 470°87%13.67%
7/29 1:10amNW 1 G 370°83%13.54%
7/29 1:00amENE 1 G 270°82%13.41%
7/29 12:50amNNE 2 G 470°82%13.32%
7/29 12:40amNNW 1 G 270°87%13.27%
7/29 12:30amNW 2 G 270°88%13.18%
7/29 12:20amNW 2 G 270°90%13.09%
7/29 12:10amWNW 1 G 270°91%12.95%
7/29 12:00amWNW 2 G 370°91%12.83%
7/28 11:50pmWNW 2 G 370°90%12.69%
7/28 11:40pmW 1 G 270°89%12.56%
7/28 11:30pmWNW 2 G 470°89%12.43%
7/28 11:20pmNW 3 G 570°90%12.31%
7/28 11:10pmNW 3 G 570°90%12.18%
7/28 11:00pmWNW 2 G 470°89%12.03%
7/28 10:50pmWNW 2 G 470°89%11.88%
7/28 10:40pmWNW 2 G 570°87%11.72%
7/28 10:30pmWNW 2 G 471°85%11.57%
7/28 10:20pmWNW 2 G 471°83%11.44%
7/28 10:10pmNW 2 G 371°81%11.32%
7/28 10:00pmNW 2 G 371°81%11.24%
7/28 9:50pmNNE 0 G 071°81%11.09%
7/28 9:40pmNNE 0 G 171°81%10.96%
7/28 9:30pmWSW 0 G 171°80%10.83%
7/28 9:20pmWSW 0 G 171°80%10.76%
7/28 9:10pmWNW 1 G 372°79%10.68%
7/28 9:00pmNNW 2 G 471°80%10.57%
7/28 8:50pmWNW 1 G 472°80%10.47%
7/28 8:40pmNW 2 G 472°79%10.36%
7/28 8:30pmNW 3 G 572°78%10.24%
7/28 8:20pmNW 2 G 672°77%10.11%
7/28 8:10pmNW 3 G 572°74%10%
7/28 8:00pmWNW 2 G 773°70%9.89%
7/28 7:50pmNW 2 G 474°64%9.77%
7/28 7:40pmNW 3 G 774°64%9.72%
7/28 7:30pmNW 5 G 974°61%9.65%
7/28 7:20pmNNW 6 G 1275°60%9.6%
7/28 7:10pmNNW 5 G 1175°57%9.56%
7/28 7:00pmNW 5 G 1176°52%9.62%
7/28 6:50pmNNW 6 G 1276°51%9.65%
7/28 6:40pmNW 5 G 1077°51%9.67%
7/28 6:30pmNW 5 G 1077°52%9.68%
7/28 6:20pmNW 4 G 1078°44%9.72%
7/28 6:10pmNW 6 G 1078°43%9.79%
7/28 6:00pmNNW 7 G 1377°48%9.89%
7/28 5:50pmNW 6 G 1477°55%9.98%
7/28 5:40pmWNW 8 G 1376°59%10%
7/28 5:30pmWNW 6 G 1376°64%10.1%
7/28 5:20pmWNW 6 G 1176°68%10.11%
7/28 5:10pmNW 7 G 1275°74%10.15%
7/28 5:00pmNW 7 G 1376°72%10.09%
7/28 4:50pmNW 8 G 1476°71%10.07%
7/28 4:40pmWNW 7 G 1276°71%10.06%
7/28 4:30pmNW 7 G 1277°70%10.04%
7/28 4:20pmNW 7 G 1477°67%10.07%
7/28 4:10pmNW 6 G 1378°65%10.07%
7/28 4:00pmNW 7 G 1376°73%10.15%
7/28 3:50pmNW 9 G 1376°74%10.05%
7/28 3:40pmNW 7 G 1277°71%10%
7/28 3:30pmNW 5 G 1278°69%10.05%
7/28 3:20pmWNW 6 G 1178°64%9.9%
7/28 3:10pmWNW 6 G 1280°54%9.93%
7/28 3:00pmW 6 G 1179°49%9.99%
7/28 2:50pmWNW 5 G 1080°45%10.01%
7/28 2:40pmWNW 5 G 980°47%10.12%
7/28 2:30pmWNW 6 G 1080°50%10.19%
7/28 2:20pmW 5 G 1079°59%10.28%
7/28 2:10pmWSW 5 G 1380°59%10.3%
7/28 2:00pmNW 4 G 881°43%10.31%
7/28 1:50pmWNW 4 G 980°46%10.4%
7/28 1:40pmWNW 5 G 1079°51%10.45%
7/28 1:30pmWNW 5 G 1078°55%10.45%
7/28 1:20pmWSW 6 G 1379°58%10.52%
7/28 1:10pmW 5 G 979°47%10.54%
7/28 1:00pmW 7 G 1179°50%10.45%
7/28 12:50pmSW 6 G 1379°56%10.65%
7/28 12:40pmWSW 5 G 1079°53%10.81%
7/28 12:30pmSW 6 G 1379°61%10.89%
7/28 12:20pmW 4 G 1081°44%10.92%
7/28 12:10pmW 4 G 982°37%11.08%
7/28 12:00pmWNW 5 G 882°44%11.3%
7/28 11:50amWNW 3 G 1282°38%11.65%
7/28 11:40amNW 3 G 780°45%11.93%
7/28 11:30amW 4 G 779°58%12.27%
7/28 11:20amW 3 G 778°57%12.52%
7/28 11:10amW 4 G 777°61%12.56%
7/28 11:00amWNW 4 G 1178°68%12.85%
7/28 10:50amW 4 G 977°72%13.08%
7/28 10:40amWSW 5 G 1278°70%13.24%
7/28 10:30amSW 5 G 977°73%13.43%
7/28 10:20amSW 4 G 977°72%13.64%
7/28 10:10amSW 3 G 776°73%13.86%
7/28 10:00amSW 3 G 776°71%14.05%
7/28 9:50amSW 3 G 576°69%14.3%
7/28 9:40amSW 3 G 775°74%14.63%
7/28 9:30amWSW 3 G 674°76%14.94%
7/28 9:20amWSW 4 G 674°79%15.24%
7/28 9:10amWSW 3 G 875°80%15.53%
7/28 9:00amSW 4 G 774°82%15.77%
7/28 8:50amSW 4 G 874°83%16.06%
7/28 8:40amSW 3 G 673°83%16.35%
7/28 8:30amS 2 G 474°80%16.62%
7/28 8:20amSSE 2 G 574°77%16.91%
7/28 8:10amESE 2 G 573°77%17.35%
7/28 8:00amSSE 2 G 473°81%17.87%
7/28 7:50amWSW 1 G 271°84%18.47%
7/28 7:40amSW 1 G 270°89%19.14%
7/28 7:30amNNW 1 G 269°92%19.77%
7/28 7:20amNW 1 G 469°94%20.19%
7/28 7:10amNW 3 G 468°94%20.75%
7/28 7:00amWNW 1 G 368°94%21.28%
7/28 6:50amW 1 G 368°94%21.45%
7/28 6:40amW 2 G 367°94%21.53%
7/28 6:30amW 3 G 467°95%21.52%
7/28 6:20amW 2 G 467°95%21.47%
7/28 6:10amNW 2 G 568°95%21.41%
7/28 6:00amNNE 5 G 768°95%21.29%